Time;durP1;ratioP1;P1;durP2;ratioP2;P2;SDS_P1;SDS_P2;PMS_P1;PMS_P2;Temp;Humidity;BMP_temperature;BMP_pressure;BME280_temperature;BME280_humidity;BME280_pressure;Samples;Min_cycle;Max_cycle;Signal;HPM_P1;HPM_P2
2022/07/03 00:01:48;;;;;;;2.50;2.33;;;16.80;98.00;;;;;;5067643;28;21065;-54
2022/07/03 00:04:14;;;;;;;3.67;2.67;;;16.80;99.90;;;;;;5104863;22;20920;-51
2022/07/03 00:06:41;;;;;;;3.10;2.90;;;16.80;99.90;;;;;;5086383;28;20557;-51
2022/07/03 00:09:08;;;;;;;2.87;2.70;;;16.70;96.90;;;;;;5088129;28;20498;-52
2022/07/03 00:11:34;;;;;;;3.13;2.80;;;16.70;92.30;;;;;;5086698;28;20452;-52
2022/07/03 00:14:01;;;;;;;3.07;2.70;;;16.70;96.50;;;;;;5089275;28;20479;-51
2022/07/03 00:16:29;;;;;;;2.60;2.50;;;16.70;95.80;;;;;;5081480;28;20512;-51
2022/07/03 00:18:56;;;;;;;2.97;2.27;;;16.70;95.70;;;;;;5077605;28;20492;-54
2022/07/03 00:21:28;;;;;;;8.03;2.63;;;16.70;98.80;;;;;;5082072;28;21012;-50
2022/07/03 00:23:58;;;;;;;3.10;2.80;;;16.70;99.40;;;;;;5089983;28;20471;-52
2022/07/03 00:26:28;;;;;;;3.20;2.80;;;16.70;94.90;;;;;;5086721;28;20469;-53
2022/07/03 00:28:58;;;;;;;2.80;2.70;;;16.70;96.70;;;;;;5081669;28;20488;-52
2022/07/03 00:31:25;;;;;;;4.03;2.93;;;16.80;99.90;;;;;;5077548;28;20463;-51
2022/07/03 00:33:55;;;;;;;2.80;2.70;;;16.70;98.80;;;;;;5085614;28;21178;-52
2022/07/03 00:36:22;;;;;;;2.80;2.60;;;16.80;99.90;;;;;;5087613;28;20456;-52
2022/07/03 00:38:49;;;;;;;3.00;2.80;;;16.70;99.90;;;;;;5086194;28;20486;-52
2022/07/03 00:41:27;;;;;;;3.43;2.73;;;16.70;99.90;;;;;;5091307;28;20507;-52
2022/07/03 00:43:53;;;;;;;3.60;3.30;;;16.70;98.00;;;;;;5088487;28;20480;-53
2022/07/03 00:46:23;;;;;;;2.70;2.50;;;16.70;98.90;;;;;;5080255;28;20488;-53
2022/07/03 00:48:51;;;;;;;4.87;2.50;;;16.60;97.00;;;;;;5076745;28;20487;-51
2022/07/03 00:51:22;;;;;;;3.20;2.87;;;16.60;96.10;;;;;;5088208;28;20468;-50
2022/07/03 00:53:51;;;;;;;2.53;2.33;;;16.60;96.10;;;;;;5084173;28;20476;-50
2022/07/03 00:56:23;;;;;;;5.13;3.53;;;16.60;96.70;;;;;;5090289;28;20952;-51
2022/07/03 00:58:52;;;;;;;3.20;3.00;;;16.60;98.40;;;;;;5085413;28;20481;-50
2022/07/03 01:01:20;;;;;;;3.57;3.23;;;16.60;99.10;;;;;;5084690;28;20870;-51
2022/07/03 01:03:49;;;;;;;2.90;2.80;;;16.60;99.20;;;;;;5090025;28;20545;-52
2022/07/03 01:06:16;;;;;;;3.63;3.33;;;16.60;99.90;;;;;;5079992;28;20622;-51
2022/07/03 01:08:49;;;;;;;4.73;2.73;;;16.60;99.90;;;;;;5088972;28;20483;-52
2022/07/03 01:11:21;;;;;;;2.77;2.57;;;16.60;99.00;;;;;;5086733;28;20463;-52
2022/07/03 01:14:01;;;;;;;3.10;2.93;;;16.60;99.90;;;;;;5086957;28;20980;-51
2022/07/03 01:16:34;;;;;;;3.83;3.43;;;16.60;99.90;;;;;;5090122;28;20505;-53
2022/07/03 01:19:13;;;;;;;2.83;2.63;;;16.60;99.90;;;;;;5083215;28;20472;-52
2022/07/03 01:21:47;;;;;;;3.60;2.63;;;16.70;99.90;;;;;;5087250;28;20514;-53
2022/07/03 01:24:34;;;;;;;2.80;2.70;;;16.70;99.90;;;;;;5089077;28;20554;-53
2022/07/03 01:27:07;;;;;;;2.70;2.60;;;16.70;99.90;;;;;;5084016;28;20584;-53
2022/07/03 01:29:45;;;;;;;3.10;2.87;;;16.70;99.90;;;;;;5088928;28;20528;-52
2022/07/03 01:32:13;;;;;;;3.47;3.10;;;16.70;99.90;;;;;;5089096;28;20508;-52
2022/07/03 01:34:44;;;;;;;3.00;2.90;;;16.70;99.90;;;;;;5086002;28;20525;-53
2022/07/03 01:37:16;;;;;;;2.70;2.60;;;16.70;99.90;;;;;;5084553;28;20472;-53
2022/07/03 01:39:45;;;;;;;5.53;3.30;;;16.70;99.90;;;;;;5086366;28;20456;-53
2022/07/03 01:42:15;;;;;;;5.07;2.70;;;16.70;99.90;;;;;;5087768;28;20577;-52
2022/07/03 01:44:42;;;;;;;2.90;2.70;;;16.60;97.70;;;;;;5086054;28;20479;-53
2022/07/03 01:47:09;;;;;;;2.60;2.50;;;16.60;98.90;;;;;;5090696;28;20541;-53
2022/07/03 01:49:36;;;;;;;4.03;3.40;;;16.60;95.10;;;;;;5084968;28;20497;-53
2022/07/03 01:52:05;;;;;;;3.47;3.27;;;16.50;94.70;;;;;;5084787;28;20453;-53
2022/07/03 01:54:34;;;;;;;3.40;3.10;;;16.40;92.70;;;;;;5085854;28;20852;-51
2022/07/03 01:57:02;;;;;;;4.17;3.63;;;16.40;89.70;;;;;;5084857;28;20541;-52
2022/07/03 01:59:30;;;;;;;3.63;3.10;;;16.30;92.60;;;;;;5089119;28;20456;-53
2022/07/03 02:02:09;;;;;;;6.57;3.10;;;16.30;92.00;;;;;;5088821;28;20507;-53
2022/07/03 02:04:44;;;;;;;2.90;2.70;;;16.30;90.30;;;;;;5084804;28;20488;-53
2022/07/03 02:07:20;;;;;;;5.13;2.67;;;16.30;88.60;;;;;;5082956;28;20988;-53
2022/07/03 02:09:51;;;;;;;3.47;3.03;;;16.30;88.00;;;;;;5085168;28;20460;-53
2022/07/03 02:12:19;;;;;;;2.80;2.60;;;16.20;83.70;;;;;;5088377;28;21018;-53
2022/07/03 02:14:57;;;;;;;3.07;2.83;;;16.20;84.00;;;;;;5084896;28;20529;-53
2022/07/03 02:17:27;;;;;;;3.07;2.77;;;16.20;83.80;;;;;;5086904;28;20545;-52
2022/07/03 02:19:55;;;;;;;4.53;3.27;;;16.20;85.50;;;;;;5084799;28;20485;-54
2022/07/03 02:22:27;;;;;;;3.17;3.00;;;16.20;80.70;;;;;;5083388;28;20557;-52
2022/07/03 02:25:03;;;;;;;9.43;3.37;;;16.10;82.10;;;;;;5088499;28;20580;-53
2022/07/03 02:27:39;;;;;;;3.70;3.30;;;16.10;80.30;;;;;;5089229;28;20995;-53
2022/07/03 02:30:08;;;;;;;3.20;2.70;;;16.10;83.70;;;;;;5084437;28;20513;-53
2022/07/03 02:32:39;;;;;;;3.10;2.90;;;16.10;82.30;;;;;;5079578;28;20962;-53
2022/07/03 02:35:07;;;;;;;3.17;3.07;;;16.00;79.70;;;;;;5089137;28;20533;-53
2022/07/03 02:37:40;;;;;;;3.60;3.10;;;16.00;80.60;;;;;;5088000;28;20537;-53
2022/07/03 02:40:10;;;;;;;3.07;2.97;;;16.00;78.00;;;;;;5087792;28;20452;-53
2022/07/03 02:42:45;;;;;;;3.33;3.13;;;15.90;77.20;;;;;;5083475;28;20524;-53
2022/07/03 02:45:14;;;;;;;3.73;3.50;;;15.90;67.90;;;;;;5087996;28;20460;-53
2022/07/03 02:47:49;;;;;;;3.60;3.30;;;15.90;70.50;;;;;;5080365;28;20465;-53
2022/07/03 02:50:21;;;;;;;9.00;4.30;;;15.90;72.00;;;;;;5084408;28;20463;-52
2022/07/03 02:52:57;;;;;;;4.13;3.03;;;15.90;71.40;;;;;;5083049;28;20496;-52
2022/07/03 02:55:43;;;;;;;3.50;3.20;;;15.90;73.20;;;;;;5084335;28;20451;-52
2022/07/03 02:58:45;;;;;;;4.67;3.50;;;15.80;74.00;;;;;;5088519;28;20476;-53
2022/07/03 03:01:21;;;;;;;8.30;3.47;;;15.90;70.90;;;;;;5087192;28;21437;-54
2022/07/03 03:03:55;;;;;;;5.63;3.47;;;15.90;72.80;;;;;;5086964;28;20514;-53
2022/07/03 03:06:24;;;;;;;3.30;3.10;;;15.90;69.00;;;;;;5086251;28;20967;-53
2022/07/03 03:08:57;;;;;;;4.23;3.73;;;15.90;68.90;;;;;;5087730;28;20480;-53
2022/07/03 03:11:29;;;;;;;4.30;3.37;;;15.80;68.50;;;;;;5080590;28;20459;-54
2022/07/03 03:13:57;;;;;;;3.80;3.40;;;15.80;70.90;;;;;;5082297;28;20916;-53
2022/07/03 03:16:26;;;;;;;3.33;3.23;;;15.80;69.50;;;;;;5087951;28;20499;-53
2022/07/03 03:18:53;;;;;;;3.73;3.03;;;15.80;69.50;;;;;;5085170;28;20464;-53
2022/07/03 03:21:20;;;;;;;3.13;2.93;;;15.80;69.20;;;;;;5084789;28;20542;-53
2022/07/03 03:23:49;;;;;;;3.60;3.40;;;15.80;66.90;;;;;;5081133;28;20479;-54
2022/07/03 03:26:18;;;;;;;3.23;3.10;;;15.80;70.50;;;;;;5081458;28;20476;-54
2022/07/03 03:28:45;;;;;;;3.53;3.10;;;15.80;69.00;;;;;;5080409;28;20525;-54
2022/07/03 03:31:12;;;;;;;3.50;3.27;;;15.90;70.10;;;;;;5080327;28;20528;-53
2022/07/03 03:33:42;;;;;;;3.70;3.47;;;15.90;71.90;;;;;;5078836;28;20491;-53
2022/07/03 03:36:11;;;;;;;3.93;3.30;;;16.00;71.30;;;;;;5088277;28;20460;-53
2022/07/03 03:38:38;;;;;;;3.83;3.53;;;16.00;72.50;;;;;;5085132;28;20527;-54
2022/07/03 03:41:05;;;;;;;3.40;3.20;;;16.00;70.20;;;;;;5086779;28;20504;-54
2022/07/03 03:43:33;;;;;;;3.67;3.47;;;16.00;69.30;;;;;;5086816;28;20487;-54
2022/07/03 03:45:59;;;;;;;4.20;3.67;;;16.10;71.50;;;;;;5083224;28;20460;-54
2022/07/03 03:48:27;;;;;;;4.93;3.50;;;16.10;71.30;;;;;;5090930;28;20513;-54
2022/07/03 03:50:56;;;;;;;3.55;3.25;;;16.10;70.50;;;;;;5077906;28;20452;-54
2022/07/03 03:53:24;;;;;;;3.33;3.07;;;16.10;69.80;;;;;;5086143;28;20602;-54
2022/07/03 03:55:58;;;;;;;3.83;3.53;;;16.20;76.40;;;;;;5086887;28;20484;-53
2022/07/03 03:58:25;;;;;;;3.57;3.37;;;16.20;74.90;;;;;;5083183;28;20456;-53
2022/07/03 04:00:53;;;;;;;3.67;3.37;;;16.30;74.70;;;;;;5078816;28;20609;-54
2022/07/03 04:03:19;;;;;;;4.03;3.73;;;16.30;77.30;;;;;;5083485;28;20487;-53
2022/07/03 04:05:46;;;;;;;3.47;3.27;;;16.40;78.60;;;;;;5087344;28;20806;-54
2022/07/03 04:08:14;;;;;;;3.60;3.30;;;16.40;80.00;;;;;;5084358;28;20455;-53
2022/07/03 04:10:41;;;;;;;7.63;4.17;;;16.50;81.90;;;;;;5086649;28;20448;-54
2022/07/03 04:13:07;;;;;;;3.93;3.63;;;16.60;82.70;;;;;;5083433;28;20471;-54
2022/07/03 04:15:34;;;;;;;7.43;3.63;;;16.60;81.00;;;;;;5082597;28;21004;-53
2022/07/03 04:18:00;;;;;;;4.43;4.10;;;16.70;80.10;;;;;;5088098;28;20456;-53
2022/07/03 04:20:27;;;;;;;4.30;4.00;;;16.70;79.10;;;;;;5086168;28;20464;-53
2022/07/03 04:22:53;;;;;;;3.83;3.63;;;16.80;81.20;;;;;;5087508;28;20480;-52
2022/07/03 04:25:21;;;;;;;4.17;3.77;;;16.80;83.60;;;;;;5075456;28;20488;-52
2022/07/03 04:27:48;;;;;;;4.87;4.13;;;16.90;84.90;;;;;;5084933;28;20482;-54
2022/07/03 04:30:14;;;;;;;10.87;3.93;;;16.90;83.50;;;;;;5080686;28;20521;-54
2022/07/03 04:32:41;;;;;;;3.87;3.57;;;17.00;84.20;;;;;;5081677;28;20526;-53
2022/07/03 04:35:08;;;;;;;4.37;3.97;;;17.00;90.50;;;;;;5079712;28;20549;-54
2022/07/03 04:37:35;;;;;;;3.80;3.60;;;17.10;85.60;;;;;;5087988;28;20452;-54
2022/07/03 04:40:02;;;;;;;3.70;3.43;;;17.10;88.40;;;;;;5081187;28;20482;-52
2022/07/03 04:42:30;;;;;;;3.90;3.57;;;17.20;92.40;;;;;;5081590;28;20476;-54
2022/07/03 04:44:57;;;;;;;4.67;4.13;;;17.20;89.70;;;;;;5087307;28;20487;-54
2022/07/03 04:47:23;;;;;;;3.87;3.40;;;17.30;94.70;;;;;;5084871;28;20891;-52
2022/07/03 04:49:50;;;;;;;4.03;3.60;;;17.30;95.40;;;;;;5075465;28;20479;-54
2022/07/03 04:52:17;;;;;;;4.10;3.80;;;17.40;97.70;;;;;;5086689;28;20452;-53
2022/07/03 04:54:44;;;;;;;3.53;3.33;;;17.40;94.20;;;;;;5075688;28;20484;-54
2022/07/03 04:57:11;;;;;;;6.67;3.57;;;17.50;95.20;;;;;;5083474;28;20544;-54
2022/07/03 04:59:39;;;;;;;5.10;3.60;;;17.50;98.00;;;;;;5086099;28;20460;-52
2022/07/03 05:02:05;;;;;;;3.80;3.40;;;17.50;95.80;;;;;;5075603;28;20477;-52
2022/07/03 05:04:32;;;;;;;3.53;3.23;;;17.60;97.00;;;;;;5082832;28;21026;-53
2022/07/03 05:06:59;;;;;;;3.47;3.20;;;17.70;99.60;;;;;;5081990;28;20488;-53
2022/07/03 05:09:25;;;;;;;4.87;3.93;;;17.70;94.60;;;;;;5087829;28;20459;-52
2022/07/03 05:11:52;;;;;;;3.80;3.60;;;17.70;94.70;;;;;;5085758;28;20456;-54
2022/07/03 05:14:19;;;;;;;4.13;3.77;;;17.80;94.50;;;;;;5085278;28;20480;-53
2022/07/03 05:16:46;;;;;;;6.73;3.90;;;17.90;98.20;;;;;;5081652;28;20483;-52
2022/07/03 05:19:13;;;;;;;7.03;4.40;;;17.90;98.20;;;;;;5090801;28;20525;-51
2022/07/03 05:21:40;;;;;;;4.47;3.97;;;18.00;98.20;;;;;;5086752;28;20739;-51
2022/07/03 05:24:07;;;;;;;5.70;4.40;;;18.10;97.60;;;;;;5087467;28;20542;-51
2022/07/03 05:26:34;;;;;;;4.43;4.13;;;18.10;99.90;;;;;;5091363;28;20459;-53
2022/07/03 05:29:00;;;;;;;4.73;4.00;;;18.30;99.90;;;;;;5087018;28;20456;-51
2022/07/03 05:31:27;;;;;;;4.10;3.80;;;18.40;99.90;;;;;;5086771;28;20569;-51
2022/07/03 05:33:55;;;;;;;4.80;3.37;;;18.50;99.90;;;;;;5079604;28;21087;-52
2022/07/03 05:36:21;;;;;;;4.27;3.57;;;18.50;99.90;;;;;;5090942;28;20456;-52
2022/07/03 05:41:32;;;;;;;3.97;3.63;;;18.70;99.90;;;;;;5081937;28;20455;-52
2022/07/03 05:43:58;;;;;;;4.50;3.90;;;18.70;99.90;;;;;;5089257;28;20476;-51
2022/07/03 05:46:25;;;;;;;4.00;3.80;;;18.80;99.90;;;;;;5088011;28;20521;-51
2022/07/03 05:48:52;;;;;;;4.47;3.90;;;18.90;99.90;;;;;;5082164;28;20511;-51
2022/07/03 05:51:20;;;;;;;3.77;3.47;;;19.00;99.90;;;;;;5079053;28;20471;-51
2022/07/03 05:53:46;;;;;;;3.70;3.33;;;19.10;99.90;;;;;;5090192;28;20565;-51
2022/07/03 05:56:13;;;;;;;3.60;3.40;;;19.20;99.90;;;;;;5088444;28;21041;-52
2022/07/03 05:58:41;;;;;;;11.50;4.33;;;19.30;99.90;;;;;;5088988;28;20456;-52
2022/07/03 06:01:07;;;;;;;4.50;4.10;;;19.40;99.90;;;;;;5084367;28;20490;-51
2022/07/03 06:03:34;;;;;;;3.80;3.50;;;19.50;99.90;;;;;;5086641;28;20538;-51
2022/07/03 06:06:01;;;;;;;4.73;4.20;;;19.60;99.90;;;;;;5087060;22;20488;-50
2022/07/03 06:08:29;;;;;;;10.53;3.33;;;19.80;99.90;;;;;;5069644;28;20462;-50
2022/07/03 06:10:55;;;;;;;6.20;3.97;;;19.90;99.90;;;;;;5070962;28;20529;-50
2022/07/03 06:13:22;;;;;;;3.10;2.90;;;19.90;99.90;;;;;;5066124;28;20480;-50
2022/07/03 06:15:49;;;;;;;3.60;3.40;;;20.10;99.90;;;;;;5081573;28;20537;-49
2022/07/03 06:18:16;;;;;;;6.23;3.50;;;20.10;99.90;;;;;;5075350;28;20452;-50
2022/07/03 06:20:42;;;;;;;3.83;3.53;;;20.30;99.90;;;;;;5084546;28;20517;-50
2022/07/03 06:23:09;;;;;;;3.40;3.07;;;20.30;99.90;;;;;;5082429;28;20479;-51
2022/07/03 06:25:37;;;;;;;3.33;3.17;;;20.40;99.90;;;;;;5089716;28;20526;-50
2022/07/03 06:28:04;;;;;;;4.10;3.10;;;20.50;99.90;;;;;;5083336;28;20855;-50
2022/07/03 06:30:30;;;;;;;3.47;3.20;;;20.50;99.90;;;;;;5084727;28;20456;-50
2022/07/03 06:32:57;;;;;;;3.17;3.07;;;20.70;99.90;;;;;;5086993;28;20452;-49
2022/07/03 06:35:23;;;;;;;3.80;3.07;;;20.80;99.90;;;;;;5090076;28;20480;-49
2022/07/03 06:37:50;;;;;;;3.13;2.90;;;20.90;99.90;;;;;;5087555;28;20464;-49
2022/07/03 06:40:17;;;;;;;3.20;3.10;;;21.10;99.90;;;;;;5081977;28;20930;-51
2022/07/03 06:42:45;;;;;;;3.67;3.30;;;21.10;99.90;;;;;;5085600;28;20548;-50
2022/07/03 06:45:11;;;;;;;5.37;3.10;;;21.20;99.90;;;;;;5087539;28;20487;-49
2022/07/03 06:47:39;;;;;;;3.40;3.20;;;21.20;99.90;;;;;;5085413;28;21206;-50
2022/07/03 06:50:06;;;;;;;9.20;2.90;;;21.40;99.90;;;;;;5082690;28;20495;-50
2022/07/03 06:52:33;;;;;;;3.23;2.93;;;21.40;99.90;;;;;;5081899;28;20505;-50
2022/07/03 06:55:00;;;;;;;2.47;2.37;;;21.50;99.90;;;;;;5078660;28;20531;-50
2022/07/03 06:57:26;;;;;;;4.00;3.07;;;21.60;99.90;;;;;;5077425;28;20457;-49
2022/07/03 06:59:54;;;;;;;5.07;2.33;;;21.70;99.90;;;;;;5085731;28;20948;-49
2022/07/03 07:02:21;;;;;;;5.40;2.90;;;21.80;99.90;;;;;;5080093;28;20511;-50
2022/07/03 07:04:47;;;;;;;2.90;2.70;;;21.90;99.90;;;;;;5082781;28;20456;-51
2022/07/03 07:07:14;;;;;;;2.50;2.30;;;22.00;99.90;;;;;;5080154;28;20521;-50
2022/07/03 07:09:41;;;;;;;11.93;2.40;;;22.00;99.90;;;;;;5082845;28;20539;-50
2022/07/03 07:12:08;;;;;;;2.70;2.50;;;22.10;99.90;;;;;;5083903;28;20513;-51
2022/07/03 07:14:35;;;;;;;4.93;2.33;;;22.10;99.90;;;;;;5083437;28;20518;-49
2022/07/03 07:17:03;;;;;;;3.17;2.97;;;22.10;99.90;;;;;;5088274;28;20465;-49
2022/07/03 07:19:30;;;;;;;3.00;2.80;;;22.20;99.90;;;;;;5084549;28;20460;-49
2022/07/03 07:21:56;;;;;;;2.60;2.50;;;22.30;99.90;;;;;;5078450;28;20545;-50
2022/07/03 07:24:23;;;;;;;4.30;3.03;;;22.40;99.90;;;;;;5086997;28;20480;-50
2022/07/03 07:26:49;;;;;;;3.27;3.00;;;22.50;99.90;;;;;;5080200;28;20717;-50
2022/07/03 07:29:16;;;;;;;2.90;2.60;;;22.60;99.90;;;;;;5082848;28;20453;-50
2022/07/03 07:31:43;;;;;;;2.70;2.47;;;22.60;99.90;;;;;;5080584;28;20815;-49
2022/07/03 07:34:11;;;;;;;2.53;2.43;;;22.70;99.90;;;;;;5078161;28;20467;-50
2022/07/03 07:36:38;;;;;;;4.97;2.80;;;22.80;99.90;;;;;;5078783;28;20488;-50
2022/07/03 07:39:04;;;;;;;2.87;2.67;;;22.90;99.90;;;;;;5087136;28;20448;-50
2022/07/03 07:41:31;;;;;;;2.73;2.53;;;23.00;99.90;;;;;;5080706;28;20834;-50
2022/07/03 07:43:58;;;;;;;2.53;2.43;;;23.00;99.90;;;;;;5086198;28;20529;-50
2022/07/03 07:46:25;;;;;;;2.67;2.47;;;23.00;99.90;;;;;;5084393;28;21053;-50
2022/07/03 07:48:52;;;;;;;3.33;2.43;;;23.10;99.90;;;;;;5086514;28;20467;-50
2022/07/03 07:51:20;;;;;;;5.00;2.40;;;23.20;99.90;;;;;;5085656;28;20552;-50
2022/07/03 07:53:46;;;;;;;6.10;2.90;;;23.30;99.90;;;;;;5082285;28;20516;-50
2022/07/03 07:56:13;;;;;;;2.97;2.60;;;23.40;99.90;;;;;;5081469;28;20594;-50
2022/07/03 07:58:40;;;;;;;5.70;2.70;;;23.40;99.90;;;;;;5081428;28;20513;-50
2022/07/03 08:06:36;;;;;;;2.77;2.50;;;23.50;99.90;;;;;;5085357;28;20535;-50
2022/07/03 08:09:04;;;;;;;2.80;2.60;;;23.60;99.90;;;;;;5082665;28;20510;-49
2022/07/03 08:11:30;;;;;;;5.40;1.80;;;23.70;99.90;;;;;;5081931;28;20484;-50
2022/07/03 08:13:57;;;;;;;2.50;2.33;;;23.80;99.90;;;;;;5082913;28;20449;-49
2022/07/03 08:16:23;;;;;;;8.53;3.00;;;23.90;99.90;;;;;;5082481;28;20517;-49
2022/07/03 08:18:52;;;;;;;2.57;2.37;;;24.00;99.90;;;;;;5081140;28;20974;-51
2022/07/03 08:21:20;;;;;;;2.50;2.40;;;24.10;99.90;;;;;;5083977;28;20523;-50
2022/07/03 08:23:48;;;;;;;3.07;2.60;;;24.10;99.90;;;;;;5083524;28;20464;-51
2022/07/03 08:26:14;;;;;;;2.50;2.30;;;24.10;99.90;;;;;;5081179;28;20479;-51
2022/07/03 08:28:41;;;;;;;3.10;2.17;;;24.20;99.90;;;;;;5084296;28;20468;-50
2022/07/03 08:31:08;;;;;;;2.70;2.10;;;24.20;99.90;;;;;;5085985;28;20514;-50
2022/07/03 08:33:35;;;;;;;2.60;2.40;;;24.40;99.90;;;;;;5088642;28;20482;-50
2022/07/03 08:36:02;;;;;;;3.73;2.30;;;24.50;99.90;;;;;;5090511;28;20475;-50
2022/07/03 08:38:33;;;;;;;2.60;2.40;;;24.40;99.90;;;;;;5081762;28;20568;-49
2022/07/03 08:41:01;;;;;;;2.53;2.43;;;24.40;99.90;;;;;;5076447;28;20461;-50
2022/07/03 08:43:28;;;;;;;2.33;2.23;;;24.40;99.90;;;;;;5083246;28;20519;-50
2022/07/03 08:45:56;;;;;;;3.20;2.43;;;24.50;99.90;;;;;;5083770;28;20480;-50
2022/07/03 08:48:23;;;;;;;12.70;2.40;;;24.60;99.90;;;;;;5090549;28;20501;-50
2022/07/03 08:50:51;;;;;;;2.90;2.70;;;24.50;99.90;;;;;;5083238;28;20492;-49
2022/07/03 08:53:18;;;;;;;5.20;2.40;;;24.70;99.90;;;;;;5089421;28;20462;-50
2022/07/03 08:55:45;;;;;;;2.47;2.37;;;24.90;99.90;;;;;;5084181;28;20487;-50
2022/07/03 08:58:14;;;;;;;2.30;2.20;;;24.90;99.90;;;;;;5084071;28;21050;-50
2022/07/03 09:00:42;;;;;;;2.20;2.10;;;25.00;99.90;;;;;;5083117;28;20517;-50
2022/07/03 09:03:11;;;;;;;2.70;1.80;;;25.10;99.90;;;;;;5085048;28;20480;-50
2022/07/03 09:05:38;;;;;;;2.70;2.50;;;25.20;99.90;;;;;;5090080;28;20519;-50
2022/07/03 09:08:07;;;;;;;2.43;2.33;;;25.10;99.90;;;;;;5084961;28;20460;-50
2022/07/03 09:10:34;;;;;;;2.40;2.20;;;25.40;99.90;;;;;;5082060;28;20485;-50
2022/07/03 09:13:01;;;;;;;2.33;2.23;;;25.40;99.90;;;;;;5085794;28;20505;-50
2022/07/03 09:15:32;;;;;;;2.87;2.57;;;25.50;99.90;;;;;;5081176;28;20554;-49
2022/07/03 09:18:00;;;;;;;3.03;2.47;;;25.50;99.90;;;;;;5078621;28;20462;-50
2022/07/03 09:20:32;;;;;;;2.63;2.50;;;25.50;99.90;;;;;;5086447;28;20826;-50
2022/07/03 09:23:10;;;;;;;2.20;1.93;;;25.50;99.90;;;;;;5085808;28;20528;-51
2022/07/03 09:25:52;;;;;;;2.23;2.13;;;25.60;99.90;;;;;;5085051;28;20490;-50
2022/07/03 09:28:21;;;;;;;2.60;2.40;;;25.70;99.90;;;;;;5083871;28;20456;-50
2022/07/03 09:31:02;;;;;;;2.63;2.53;;;25.70;99.90;;;;;;5087939;28;20509;-50
2022/07/03 09:33:29;;;;;;;3.03;2.27;;;25.80;99.90;;;;;;5088103;28;20445;-51
2022/07/03 09:35:56;;;;;;;4.70;2.60;;;25.80;99.90;;;;;;5086929;28;20483;-50
2022/07/03 09:38:23;;;;;;;2.10;2.00;;;25.90;99.90;;;;;;5088744;28;20510;-51
2022/07/03 09:40:52;;;;;;;3.63;2.00;;;25.90;99.90;;;;;;5080935;28;20851;-51
2022/07/03 09:43:24;;;;;;;2.30;2.10;;;25.70;99.90;;;;;;5086909;28;20816;-51
2022/07/03 09:45:54;;;;;;;3.03;2.73;;;25.60;99.90;;;;;;5084182;28;20486;-51
2022/07/03 09:48:28;;;;;;;2.03;1.93;;;25.70;99.90;;;;;;5081745;28;20909;-50
2022/07/03 09:51:12;;;;;;;2.67;2.57;;;25.90;99.90;;;;;;5084314;28;20884;-50
2022/07/03 09:53:51;;;;;;;6.33;2.13;;;26.20;99.90;;;;;;5085308;28;20505;-50
2022/07/03 09:56:19;;;;;;;2.90;2.07;;;26.40;99.90;;;;;;5084588;28;20507;-54
2022/07/03 09:59:08;;;;;;;2.93;2.00;;;26.40;99.90;;;;;;5083478;28;20453;-53
2022/07/03 10:01:35;;;;;;;2.33;1.97;;;26.40;99.90;;;;;;5082464;28;20464;-53
2022/07/03 10:04:18;;;;;;;2.67;2.47;;;26.60;99.90;;;;;;5085877;28;20471;-53
2022/07/03 10:06:53;;;;;;;2.60;2.40;;;26.70;99.90;;;;;;5089030;28;20545;-52
2022/07/03 10:09:21;;;;;;;3.87;2.13;;;26.90;99.90;;;;;;5082263;28;20461;-53
2022/07/03 10:11:49;;;;;;;1.70;1.60;;;26.80;99.90;;;;;;5087728;28;20456;-53
2022/07/03 10:14:17;;;;;;;2.13;1.93;;;26.80;99.90;;;;;;5088572;28;20459;-53
2022/07/03 10:16:45;;;;;;;3.67;2.13;;;26.60;99.90;;;;;;5084405;28;20556;-55
2022/07/03 10:19:18;;;;;;;2.20;2.10;;;26.70;99.90;;;;;;5079141;28;21026;-53
2022/07/03 10:21:50;;;;;;;2.97;2.70;;;26.70;99.90;;;;;;5084485;28;20460;-53
2022/07/03 10:24:18;;;;;;;2.00;1.90;;;26.90;99.90;;;;;;5082513;28;20529;-50
2022/07/03 10:26:45;;;;;;;2.70;1.97;;;26.90;99.90;;;;;;5075551;28;20476;-50
2022/07/03 10:29:15;;;;;;;4.20;2.20;;;27.00;99.90;;;;;;5082850;28;20511;-49
2022/07/03 10:31:45;;;;;;;2.50;1.73;;;27.00;99.90;;;;;;5077814;28;20991;-53
2022/07/03 10:34:13;;;;;;;2.20;2.10;;;27.00;99.90;;;;;;5085490;28;20554;-49
2022/07/03 10:36:41;;;;;;;2.47;2.27;;;27.00;99.90;;;;;;5083791;28;20579;-50
2022/07/03 10:39:10;;;;;;;1.67;1.67;;;26.80;99.90;;;;;;5083360;28;20455;-50
2022/07/03 10:47:37;;;;;;;1.87;1.77;;;27.20;99.90;;;;;;5080663;28;20452;-54
2022/07/03 10:50:09;;;;;;;1.60;1.60;;;27.30;99.90;;;;;;5080848;28;20545;-53
2022/07/03 10:52:36;;;;;;;2.10;1.90;;;27.30;99.90;;;;;;5084381;28;20452;-54
2022/07/03 10:55:06;;;;;;;3.53;2.00;;;27.20;99.90;;;;;;5084468;28;20546;-54
2022/07/03 10:57:33;;;;;;;2.03;1.87;;;27.30;99.90;;;;;;5086168;28;20459;-53
2022/07/03 11:00:05;;;;;;;1.90;1.80;;;27.30;99.90;;;;;;5076931;28;22850;-52
2022/07/03 11:02:38;;;;;;;2.10;2.00;;;27.30;99.90;;;;;;5079822;28;20759;-53
2022/07/03 11:05:12;;;;;;;1.70;1.60;;;27.50;99.90;;;;;;5085848;28;20940;-53
2022/07/03 11:07:45;;;;;;;1.80;1.70;;;27.40;99.90;;;;;;5080249;28;20958;-52
2022/07/03 11:10:32;;;;;;;1.90;1.73;;;27.40;99.90;;;;;;5082035;28;20457;-53
2022/07/03 11:13:00;;;;;;;1.77;1.60;;;27.50;99.90;;;;;;5086745;28;20456;-52
2022/07/03 11:15:28;;;;;;;2.73;1.87;;;27.60;99.90;;;;;;5083071;28;20484;-52
2022/07/03 11:18:09;;;;;;;1.20;1.20;;;27.70;99.90;;;;;;5088938;28;21179;-54
2022/07/03 11:20:56;;;;;;;1.70;1.60;;;27.90;99.90;;;;;;5087788;28;20455;-55
2022/07/03 11:23:29;;;;;;;2.83;1.70;;;27.90;99.90;;;;;;5081968;28;20474;-55
2022/07/03 11:25:58;;;;;;;1.93;1.80;;;28.00;99.90;;;;;;5082577;28;20486;-54
2022/07/03 11:28:51;;;;;;;2.07;1.90;;;28.00;99.90;;;;;;5087622;28;20895;-53
2022/07/03 11:31:21;;;;;;;3.60;2.20;;;28.00;99.90;;;;;;5084410;28;20467;-53
2022/07/03 11:33:49;;;;;;;2.33;2.20;;;27.90;99.90;;;;;;5079924;28;20502;-54
2022/07/03 11:36:26;;;;;;;7.53;1.50;;;28.10;99.90;;;;;;5082636;28;20895;-52
2022/07/03 11:39:04;;;;;;;1.80;1.70;;;28.20;99.90;;;;;;5086277;28;20486;-52
2022/07/03 11:41:43;;;;;;;2.03;1.87;;;28.10;99.90;;;;;;5083242;28;21079;-53
2022/07/03 11:44:14;;;;;;;1.47;1.47;;;28.20;99.90;;;;;;5078180;28;20479;-53
2022/07/03 11:46:41;;;;;;;5.03;2.60;;;28.10;99.90;;;;;;5088245;28;20480;-53
2022/07/03 11:49:09;;;;;;;1.50;1.40;;;28.20;99.90;;;;;;5081155;28;20952;-53
2022/07/03 11:51:38;;;;;;;1.87;1.77;;;28.20;99.90;;;;;;5086001;28;20546;-53
2022/07/03 11:54:06;;;;;;;1.60;1.60;;;28.30;99.90;;;;;;5088444;28;20481;-53
2022/07/03 11:56:33;;;;;;;3.13;1.70;;;28.50;99.90;;;;;;5086010;28;20509;-53
2022/07/03 11:59:01;;;;;;;2.20;2.00;;;28.50;99.90;;;;;;5077992;28;20516;-53
2022/07/03 12:01:30;;;;;;;1.43;1.40;;;28.50;99.90;;;;;;5081483;28;20941;-54
2022/07/03 12:04:05;;;;;;;2.63;2.43;;;28.40;99.90;;;;;;5084663;28;20525;-53
2022/07/03 12:06:35;;;;;;;1.70;1.60;;;28.10;99.90;;;;;;5073664;28;20484;-50
2022/07/03 12:09:03;;;;;;;1.60;1.50;;;27.60;99.90;;;;;;5074618;28;20453;-49
2022/07/03 12:11:30;;;;;;;1.97;1.70;;;27.50;99.90;;;;;;5084786;28;20461;-50
2022/07/03 12:13:57;;;;;;;4.80;2.80;;;27.30;99.90;;;;;;5089801;28;20456;-50
2022/07/03 12:16:33;;;;;;;2.17;2.07;;;27.20;99.90;;;;;;5082345;28;20480;-51
2022/07/03 12:19:04;;;;;;;2.20;1.93;;;27.10;99.90;;;;;;5086506;28;20455;-49
2022/07/03 12:21:37;;;;;;;6.83;1.87;;;27.00;99.90;;;;;;5083767;28;20459;-49
2022/07/03 12:24:12;;;;;;;2.67;2.47;;;27.00;99.90;;;;;;5086957;28;20484;-49
2022/07/03 12:26:38;;;;;;;5.80;1.90;;;26.90;99.90;;;;;;5084977;28;20816;-50
2022/07/03 12:29:08;;;;;;;1.60;1.60;;;27.10;99.90;;;;;;5080612;28;20528;-49
2022/07/03 12:31:35;;;;;;;1.70;1.60;;;27.40;99.90;;;;;;5084312;28;20452;-50
2022/07/03 12:34:03;;;;;;;1.80;1.70;;;27.70;99.90;;;;;;5088681;28;20861;-50
2022/07/03 12:36:30;;;;;;;3.63;2.00;;;28.00;99.90;;;;;;5076965;28;20485;-49
2022/07/03 12:38:57;;;;;;;4.33;1.60;;;28.40;99.90;;;;;;5084563;28;20499;-49
2022/07/03 12:41:26;;;;;;;1.57;1.47;;;28.60;99.90;;;;;;5083409;28;20479;-50
2022/07/03 12:43:56;;;;;;;1.33;1.23;;;28.70;99.90;;;;;;5081912;28;20568;-49
2022/07/03 12:46:24;;;;;;;1.20;1.20;;;28.70;99.90;;;;;;5078566;28;20477;-48
2022/07/03 12:48:53;;;;;;;1.30;1.30;;;28.30;99.90;;;;;;5084436;28;20514;-50
2022/07/03 12:51:40;;;;;;;1.60;1.50;;;27.80;99.90;;;;;;5084541;28;20471;-50
2022/07/03 12:54:07;;;;;;;2.03;1.57;;;27.70;99.90;;;;;;5083347;28;20455;-50
2022/07/03 12:56:35;;;;;;;1.77;1.67;;;27.80;99.90;;;;;;5084176;28;20475;-50
2022/07/03 12:59:16;;;;;;;1.20;1.20;;;28.00;99.90;;;;;;5076500;28;20545;-49
2022/07/03 13:01:44;;;;;;;1.10;1.10;;;28.20;99.90;;;;;;5083020;28;20456;-49
2022/07/03 13:04:14;;;;;;;2.50;1.47;;;28.50;99.90;;;;;;5083162;28;20475;-49
2022/07/03 13:06:41;;;;;;;2.10;1.60;;;28.80;99.90;;;;;;5088299;28;20984;-50
2022/07/03 13:09:08;;;;;;;1.83;1.70;;;28.90;99.90;;;;;;5076365;28;20452;-50
2022/07/03 13:11:37;;;;;;;1.27;1.27;;;28.80;99.90;;;;;;5079039;28;20490;-50